Time;durP1;ratioP1;P1;durP2;ratioP2;P2;SDS_P1;SDS_P2;PMS_P1;PMS_P2;Temp;Humidity;BMP_temperature;BMP_pressure;BME280_temperature;BME280_humidity;BME280_pressure;Samples;Min_cycle;Max_cycle;Signal;HPM_P1;HPM_P2
2022/05/06 00:00:00;;;;;;;34.00;11.55;;;10.40;99.90;;;;;;4988432;28;20030;-86
2022/05/06 00:02:26;;;;;;;25.80;12.90;;;10.40;99.90;;;;;;4994070;28;20034;-86
2022/05/06 00:04:52;;;;;;;30.52;15.18;;;10.40;99.90;;;;;;4993740;28;20413;-86
2022/05/06 00:07:19;;;;;;;32.33;15.77;;;10.40;99.90;;;;;;4993569;28;20030;-86
2022/05/06 00:09:44;;;;;;;45.20;16.98;;;10.40;99.90;;;;;;4994458;28;20038;-86
2022/05/06 00:12:12;;;;;;;57.38;18.23;;;10.50;99.90;;;;;;4993215;28;20486;-86
2022/05/06 00:14:39;;;;;;;39.28;17.00;;;10.40;99.90;;;;;;4957471;28;20045;-86
2022/05/06 00:17:06;;;;;;;36.33;17.35;;;10.40;99.90;;;;;;4988620;28;20027;-86
2022/05/06 00:19:32;;;;;;;44.08;16.20;;;10.50;99.90;;;;;;4990061;28;20161;-86
2022/05/06 00:21:58;;;;;;;40.10;16.10;;;10.50;99.90;;;;;;4993295;28;20030;-86
2022/05/06 00:24:24;;;;;;;43.88;18.65;;;10.40;99.90;;;;;;5009203;28;20027;-86
2022/05/06 00:26:49;;;;;;;32.50;17.30;;;10.30;99.90;;;;;;4994525;28;20387;-86
2022/05/06 00:29:16;;;;;;;39.20;17.92;;;10.40;99.90;;;;;;4993936;28;20394;-86
2022/05/06 00:31:41;;;;;;;49.35;19.67;;;10.40;99.90;;;;;;4992396;28;20030;-86
2022/05/06 00:34:09;;;;;;;44.50;18.75;;;10.30;99.90;;;;;;5008222;28;20031;-86
2022/05/06 00:36:34;;;;;;;42.95;20.67;;;10.40;99.90;;;;;;5008847;28;20026;-86
2022/05/06 00:39:00;;;;;;;48.13;20.38;;;10.30;99.90;;;;;;4993722;28;20603;-86
2022/05/06 00:41:25;;;;;;;39.80;19.10;;;10.30;99.90;;;;;;5008571;28;20435;-86
2022/05/06 00:43:51;;;;;;;42.28;19.80;;;10.50;99.90;;;;;;4992094;28;20049;-86
2022/05/06 00:46:17;;;;;;;43.70;19.83;;;10.40;99.90;;;;;;4990622;28;20581;-86
2022/05/06 00:48:46;;;;;;;38.40;19.70;;;10.20;99.90;;;;;;4975507;28;20386;-87
2022/05/06 00:51:12;;;;;;;43.83;20.55;;;10.30;99.90;;;;;;5008881;28;20022;-85
2022/05/06 00:53:39;;;;;;;46.00;20.88;;;10.40;99.90;;;;;;4995469;28;20080;-87
2022/05/06 00:56:08;;;;;;;44.72;21.27;;;10.30;99.90;;;;;;4993786;28;20026;-86
2022/05/06 00:58:35;;;;;;;44.45;21.25;;;10.20;99.90;;;;;;4995201;28;20018;-86
2022/05/06 01:01:04;;;;;;;58.83;23.73;;;10.30;99.90;;;;;;4992789;28;20125;-87
2022/05/06 01:03:33;;;;;;;51.67;22.13;;;10.40;99.90;;;;;;4991522;28;20027;-87
2022/05/06 01:06:02;;;;;;;50.03;21.80;;;10.40;99.90;;;;;;5004255;28;20030;-87
2022/05/06 01:08:29;;;;;;;48.75;22.55;;;10.40;99.90;;;;;;4991702;28;20462;-86
2022/05/06 01:10:54;;;;;;;38.42;20.13;;;10.40;99.90;;;;;;4990870;28;20136;-86
2022/05/06 01:13:21;;;;;;;39.78;21.15;;;10.40;99.90;;;;;;4978713;28;20367;-86
2022/05/06 01:15:48;;;;;;;48.78;22.00;;;10.40;99.90;;;;;;4991288;28;20026;-87
2022/05/06 01:18:13;;;;;;;38.22;21.75;;;10.30;99.90;;;;;;4991955;28;20030;-87
2022/05/06 01:20:47;;;;;;;36.80;20.77;;;10.40;99.90;;;;;;4990378;28;20026;-86
2022/05/06 01:23:13;;;;;;;37.75;20.63;;;10.40;99.90;;;;;;4973517;28;20120;-86
2022/05/06 01:25:39;;;;;;;41.95;19.85;;;10.40;99.90;;;;;;4990084;28;20019;-86
2022/05/06 01:28:06;;;;;;;45.03;20.60;;;10.30;99.90;;;;;;5006573;28;20540;-86
2022/05/06 01:30:35;;;;;;;40.25;19.83;;;10.40;99.90;;;;;;4989570;28;20073;-86
2022/05/06 01:33:14;;;;;;;52.65;23.90;;;10.40;99.90;;;;;;5006790;28;20146;-87
2022/05/06 01:35:45;;;;;;;40.38;19.48;;;10.20;99.90;;;;;;4985624;28;20027;-86
2022/05/06 01:38:17;;;;;;;36.70;19.70;;;10.30;99.90;;;;;;4973012;28;20030;-87
2022/05/06 01:40:47;;;;;;;41.08;20.25;;;10.30;99.90;;;;;;4990112;28;20100;-87
2022/05/06 01:43:15;;;;;;;38.20;19.67;;;10.30;99.90;;;;;;4990193;28;20073;-87
2022/05/06 01:45:43;;;;;;;41.05;20.42;;;10.20;99.90;;;;;;4991567;28;20564;-86
2022/05/06 01:48:09;;;;;;;42.65;21.02;;;10.30;99.90;;;;;;4989865;28;20395;-87
2022/05/06 01:50:39;;;;;;;46.22;21.23;;;10.40;99.90;;;;;;4991185;28;20474;-87
2022/05/06 01:53:07;;;;;;;38.30;20.17;;;10.30;99.90;;;;;;4990096;28;20038;-86
2022/05/06 01:55:33;;;;;;;40.00;20.38;;;10.30;99.90;;;;;;4991231;28;20067;-87
2022/05/06 01:57:59;;;;;;;43.60;20.77;;;10.30;99.90;;;;;;4991055;28;20149;-87
2022/05/06 02:00:25;;;;;;;45.20;22.60;;;10.30;99.90;;;;;;4990636;28;20018;-86
2022/05/06 02:02:51;;;;;;;43.85;21.27;;;10.50;99.90;;;;;;4990531;28;20073;-86
2022/05/06 02:05:17;;;;;;;43.65;20.80;;;10.50;99.90;;;;;;4980246;28;20038;-87
2022/05/06 02:07:48;;;;;;;39.17;19.65;;;10.30;99.90;;;;;;4991044;28;20041;-87
2022/05/06 02:10:14;;;;;;;45.47;22.63;;;10.30;99.90;;;;;;4989344;28;20402;-87
2022/05/06 02:12:40;;;;;;;49.80;19.30;;;10.40;99.90;;;;;;4990845;28;20037;-87
2022/05/06 02:15:06;;;;;;;43.00;21.40;;;10.30;99.90;;;;;;4992460;28;20026;-87
2022/05/06 02:17:32;;;;;;;38.55;20.95;;;10.30;99.90;;;;;;4990460;28;20034;-87
2022/05/06 02:19:57;;;;;;;40.83;19.27;;;10.40;99.90;;;;;;5005620;28;20045;-87
2022/05/06 02:22:27;;;;;;;46.20;20.73;;;10.50;99.90;;;;;;4989166;28;20030;-87
2022/05/06 02:24:53;;;;;;;43.00;20.48;;;10.50;99.90;;;;;;4984318;28;20023;-87
2022/05/06 02:27:19;;;;;;;35.63;19.85;;;10.40;99.90;;;;;;4985970;28;20027;-87
2022/05/06 02:33:12;;;;;;;50.33;22.70;;;10.40;99.90;;;;;;4984465;28;20026;-87
2022/05/06 02:35:15;;;;;;;48.63;23.70;;;10.30;99.90;;;;;;5003495;28;20084;-87
2022/05/06 02:37:41;;;;;;;59.42;24.48;;;10.30;99.90;;;;;;4955266;28;20494;-89
2022/05/06 02:40:11;;;;;;;43.90;22.70;;;10.30;99.90;;;;;;4991108;28;20541;-86
2022/05/06 02:42:37;;;;;;;47.60;23.17;;;10.20;99.90;;;;;;4991130;28;20147;-87
2022/05/06 02:45:04;;;;;;;50.15;23.30;;;10.30;99.90;;;;;;4990018;28;20039;-87
2022/05/06 02:47:29;;;;;;;49.90;21.48;;;10.30;99.90;;;;;;4987065;28;20372;-87
2022/05/06 02:49:56;;;;;;;54.20;22.83;;;10.30;99.90;;;;;;4975149;28;20070;-87
2022/05/06 02:52:22;;;;;;;45.88;22.25;;;10.30;99.90;;;;;;4977313;28;20034;-87
2022/05/06 02:54:49;;;;;;;49.60;23.83;;;10.30;99.90;;;;;;4990164;28;20050;-87
2022/05/06 02:57:15;;;;;;;54.90;23.85;;;10.30;99.90;;;;;;4989690;28;20034;-87
2022/05/06 02:59:41;;;;;;;48.85;22.90;;;10.30;99.90;;;;;;4992078;28;20490;-86
2022/05/06 03:02:07;;;;;;;44.15;23.08;;;10.30;99.90;;;;;;4989677;28;20038;-87
2022/05/06 03:04:33;;;;;;;36.17;21.30;;;10.40;99.90;;;;;;4990483;28;20026;-87
2022/05/06 03:06:59;;;;;;;44.75;23.13;;;10.40;99.90;;;;;;5005026;28;20393;-87
2022/05/06 03:09:25;;;;;;;51.90;22.38;;;10.40;99.90;;;;;;4988401;28;20026;-87
2022/05/06 03:11:52;;;;;;;45.50;24.40;;;10.40;99.90;;;;;;4987912;28;20053;-87
2022/05/06 03:14:17;;;;;;;51.47;24.40;;;10.50;99.90;;;;;;4989929;28;20242;-87
2022/05/06 03:16:43;;;;;;;43.15;22.50;;;10.50;99.90;;;;;;4990809;28;20045;-87
2022/05/06 03:19:09;;;;;;;43.97;23.83;;;10.50;99.90;;;;;;4986824;28;20129;-87
2022/05/06 03:21:35;;;;;;;48.53;25.30;;;10.50;99.90;;;;;;4989512;28;20045;-87
2022/05/06 03:24:01;;;;;;;38.10;20.95;;;10.50;99.90;;;;;;4989835;28;20532;-87
2022/05/06 03:26:27;;;;;;;47.65;23.90;;;10.50;99.90;;;;;;4970157;28;20121;-87
2022/05/06 03:28:54;;;;;;;40.50;23.23;;;10.50;99.90;;;;;;5004166;28;20085;-87
2022/05/06 03:31:20;;;;;;;42.53;23.08;;;10.50;99.90;;;;;;5003523;28;20041;-87
2022/05/06 03:33:47;;;;;;;46.05;23.48;;;10.50;99.90;;;;;;4993711;28;20136;-87
2022/05/06 03:36:12;;;;;;;36.90;22.48;;;10.60;99.90;;;;;;4989445;28;20038;-87
2022/05/06 03:38:38;;;;;;;44.95;25.48;;;10.60;99.90;;;;;;4993731;28;20034;-87
2022/05/06 03:41:04;;;;;;;36.67;22.90;;;10.60;99.90;;;;;;4992283;28;20027;-87
2022/05/06 03:43:29;;;;;;;37.38;23.27;;;10.60;99.90;;;;;;4977989;28;20034;-87
2022/05/06 03:45:55;;;;;;;36.92;21.60;;;10.60;99.90;;;;;;5010918;28;20078;-86
2022/05/06 03:48:24;;;;;;;44.50;23.05;;;10.60;99.90;;;;;;4993562;28;20048;-87
2022/05/06 03:53:38;;;;;;;44.45;23.77;;;10.60;99.90;;;;;;4982865;28;20084;-87
2022/05/06 03:56:05;;;;;;;44.05;24.30;;;10.60;99.90;;;;;;5004988;28;20030;-87
2022/05/06 03:58:32;;;;;;;45.03;24.88;;;10.50;99.90;;;;;;4996318;28;20039;-87
2022/05/06 04:00:58;;;;;;;43.78;25.00;;;10.60;99.90;;;;;;4987562;28;20679;-87
2022/05/06 04:03:24;;;;;;;40.65;23.08;;;10.60;99.90;;;;;;4993554;28;20106;-87
2022/05/06 04:05:49;;;;;;;42.78;24.52;;;10.50;99.90;;;;;;4994097;28;20035;-87
2022/05/06 04:08:15;;;;;;;46.67;25.67;;;10.60;99.90;;;;;;5008365;28;20041;-87
2022/05/06 04:10:41;;;;;;;43.72;25.70;;;10.60;99.90;;;;;;4992053;28;20074;-87
2022/05/06 04:13:07;;;;;;;42.22;24.48;;;10.60;99.90;;;;;;4989662;28;20398;-87
2022/05/06 04:15:33;;;;;;;46.03;25.65;;;10.50;99.90;;;;;;4989610;28;20023;-87
2022/05/06 04:18:00;;;;;;;41.33;26.70;;;10.50;99.90;;;;;;5006704;28;20026;-86
2022/05/06 04:26:04;;;;;;;42.42;24.70;;;10.30;99.90;;;;;;4981742;28;20398;-87
2022/05/06 04:28:31;;;;;;;42.45;24.60;;;10.30;99.90;;;;;;4984430;28;20125;-87
2022/05/06 04:30:57;;;;;;;42.15;25.30;;;10.40;99.90;;;;;;4979247;28;20045;-86
2022/05/06 04:33:27;;;;;;;40.13;25.00;;;10.40;99.90;;;;;;4985762;28;20393;-87
2022/05/06 04:35:54;;;;;;;41.03;24.73;;;10.40;99.90;;;;;;4988353;28;20042;-87
2022/05/06 04:38:20;;;;;;;45.92;25.80;;;10.50;99.90;;;;;;4989141;28;20030;-88
2022/05/06 04:40:47;;;;;;;48.30;26.23;;;10.50;99.90;;;;;;4993155;28;20397;-89
2022/05/06 04:43:12;;;;;;;41.00;24.55;;;10.50;99.90;;;;;;5008047;28;20118;-85
2022/05/06 04:45:40;;;;;;;45.25;24.70;;;10.50;99.90;;;;;;4991190;28;20176;-87
2022/05/06 04:48:07;;;;;;;46.90;26.50;;;10.50;99.90;;;;;;5012024;28;20034;-85
2022/05/06 04:50:36;;;;;;;43.22;25.10;;;10.40;99.90;;;;;;5001724;28;20035;-86
2022/05/06 04:53:02;;;;;;;46.83;25.98;;;10.50;99.90;;;;;;5005301;28;20077;-86
2022/05/06 04:55:28;;;;;;;45.10;25.25;;;10.50;99.90;;;;;;5003266;28;20085;-87
2022/05/06 04:57:54;;;;;;;46.25;27.83;;;10.50;99.90;;;;;;4989496;28;20035;-86
2022/05/06 05:00:21;;;;;;;43.42;25.50;;;10.60;99.90;;;;;;4986981;28;20097;-86
2022/05/06 05:02:47;;;;;;;45.10;26.58;;;10.50;99.90;;;;;;4995555;28;20057;-86
2022/05/06 05:05:12;;;;;;;41.35;27.10;;;10.40;99.90;;;;;;4990361;28;20249;-86
2022/05/06 05:07:38;;;;;;;46.60;27.67;;;10.50;99.90;;;;;;4989051;28;20462;-87
2022/05/06 05:10:04;;;;;;;43.45;25.85;;;10.50;99.90;;;;;;4982005;28;20076;-87
2022/05/06 05:12:31;;;;;;;41.22;23.58;;;10.60;99.90;;;;;;4990327;28;20041;-86
2022/05/06 05:14:57;;;;;;;50.47;26.88;;;10.60;99.90;;;;;;4989811;28;20030;-87
2022/05/06 05:17:22;;;;;;;47.20;26.02;;;10.50;99.90;;;;;;4989703;28;20023;-87
2022/05/06 05:19:48;;;;;;;43.20;26.13;;;10.50;99.90;;;;;;4989776;28;20500;-87
2022/05/06 05:22:14;;;;;;;43.00;24.77;;;10.50;99.90;;;;;;4990088;28;20026;-87
2022/05/06 05:24:40;;;;;;;45.00;25.90;;;10.60;99.90;;;;;;4989804;28;20388;-87
2022/05/06 05:27:06;;;;;;;42.45;25.00;;;10.50;99.90;;;;;;4997138;28;20022;-87
2022/05/06 05:29:31;;;;;;;42.92;24.67;;;10.50;99.90;;;;;;4973703;28;20031;-86
2022/05/06 05:31:57;;;;;;;38.83;25.40;;;10.60;99.90;;;;;;4991487;28;20478;-87
2022/05/06 05:34:23;;;;;;;34.50;23.52;;;10.60;99.90;;;;;;5005640;28;20098;-86
2022/05/06 05:36:49;;;;;;;37.90;25.02;;;10.50;99.90;;;;;;4972777;28;20047;-86
2022/05/06 05:39:14;;;;;;;42.50;25.10;;;10.60;99.90;;;;;;4988033;28;20422;-87
2022/05/06 05:41:40;;;;;;;37.65;24.00;;;10.50;99.90;;;;;;4990721;28;20405;-87
2022/05/06 05:49:34;;;;;;;40.22;26.48;;;10.40;99.90;;;;;;4994082;28;20045;-86
2022/05/06 05:52:00;;;;;;;38.92;24.83;;;10.50;99.90;;;;;;4996309;28;20026;-86
2022/05/06 05:54:26;;;;;;;44.60;24.65;;;10.50;99.90;;;;;;4993155;28;20677;-86
2022/05/06 05:56:52;;;;;;;36.03;23.73;;;10.50;99.90;;;;;;4990591;28;20039;-86
2022/05/06 05:59:18;;;;;;;37.60;24.35;;;10.50;99.90;;;;;;4989040;28;20045;-86
2022/05/06 06:01:44;;;;;;;44.65;25.42;;;10.40;99.90;;;;;;4987785;28;20066;-86
2022/05/06 06:04:09;;;;;;;36.15;22.92;;;10.50;99.90;;;;;;4987191;28;20405;-86
2022/05/06 06:06:35;;;;;;;36.83;23.27;;;10.60;99.90;;;;;;4989700;28;20053;-86
2022/05/06 06:09:01;;;;;;;35.95;22.63;;;10.50;99.90;;;;;;4989932;28;20042;-86
2022/05/06 06:11:26;;;;;;;39.10;24.40;;;10.50;99.90;;;;;;5006725;28;20038;-86
2022/05/06 06:13:52;;;;;;;35.75;22.45;;;10.60;99.90;;;;;;4989601;28;20404;-86
2022/05/06 06:16:19;;;;;;;38.83;22.88;;;10.50;99.90;;;;;;4990583;28;20045;-86
2022/05/06 06:18:46;;;;;;;35.45;22.08;;;10.30;99.90;;;;;;4989854;28;20037;-86
2022/05/06 06:21:12;;;;;;;35.20;23.00;;;10.30;99.90;;;;;;4986574;28;20390;-86
2022/05/06 06:23:38;;;;;;;37.55;21.02;;;10.40;99.90;;;;;;4990642;28;20117;-86
2022/05/06 06:26:04;;;;;;;37.70;23.73;;;10.50;99.90;;;;;;4990755;28;20030;-86
2022/05/06 06:28:30;;;;;;;32.38;21.45;;;10.50;99.90;;;;;;4972066;28;20051;-86
2022/05/06 06:30:55;;;;;;;30.88;21.50;;;10.50;99.90;;;;;;4988967;28;20035;-86
2022/05/06 06:33:21;;;;;;;35.13;22.08;;;10.50;99.90;;;;;;5005640;28;20521;-86
2022/05/06 06:35:47;;;;;;;33.05;23.45;;;10.60;99.90;;;;;;4992405;28;20117;-86
2022/05/06 06:38:12;;;;;;;32.25;21.10;;;10.50;99.90;;;;;;5010114;28;20167;-86
2022/05/06 06:40:38;;;;;;;35.85;22.23;;;10.50;99.90;;;;;;4992565;28;20117;-86
2022/05/06 06:43:05;;;;;;;29.38;20.92;;;10.50;99.90;;;;;;4991422;28;20070;-86
2022/05/06 06:45:31;;;;;;;33.03;20.45;;;10.50;99.90;;;;;;4984655;28;20046;-86
2022/05/06 06:47:58;;;;;;;31.80;20.77;;;10.60;99.90;;;;;;4982595;28;20025;-86
2022/05/06 06:50:24;;;;;;;34.10;22.50;;;10.60;99.90;;;;;;4990255;28;20077;-86
2022/05/06 06:52:50;;;;;;;31.92;20.92;;;10.60;99.90;;;;;;4986064;28;20098;-86
2022/05/06 06:55:16;;;;;;;33.25;20.88;;;10.50;99.90;;;;;;4987800;28;20487;-86
2022/05/06 06:57:42;;;;;;;29.92;21.30;;;10.40;99.90;;;;;;4985040;28;20031;-86
2022/05/06 07:00:09;;;;;;;33.75;21.38;;;10.50;99.90;;;;;;4990282;28;20037;-86
2022/05/06 07:02:42;;;;;;;29.48;20.52;;;10.50;99.90;;;;;;4987793;28;20035;-86
2022/05/06 07:05:08;;;;;;;33.00;22.13;;;10.50;99.90;;;;;;4972439;28;20031;-85
2022/05/06 07:13:02;;;;;;;27.65;19.90;;;10.80;99.90;;;;;;4984705;28;20517;-86
2022/05/06 07:15:30;;;;;;;30.60;21.13;;;10.70;99.90;;;;;;5000411;28;20046;-84
2022/05/06 07:17:56;;;;;;;30.08;19.42;;;10.70;99.90;;;;;;4994229;28;20034;-84
2022/05/06 07:20:21;;;;;;;23.92;15.40;;;10.80;99.90;;;;;;4972748;28;20031;-85
2022/05/06 07:22:47;;;;;;;29.60;20.10;;;10.70;99.90;;;;;;4987597;28;20033;-84
2022/05/06 07:25:13;;;;;;;31.13;20.35;;;10.70;99.90;;;;;;4987833;28;20031;-84
2022/05/06 07:27:43;;;;;;;33.25;19.55;;;10.60;99.90;;;;;;4978613;28;20109;-85
2022/05/06 07:30:09;;;;;;;27.50;19.13;;;10.70;99.90;;;;;;5008359;28;20023;-84
2022/05/06 07:32:37;;;;;;;26.23;18.00;;;10.60;99.90;;;;;;4988838;28;20049;-84
2022/05/06 07:35:03;;;;;;;24.65;18.05;;;10.70;99.90;;;;;;4993441;28;20030;-84
2022/05/06 07:37:33;;;;;;;24.65;17.73;;;10.70;99.90;;;;;;4993381;28;20045;-85
2022/05/06 07:40:00;;;;;;;27.08;16.42;;;10.50;99.90;;;;;;4994000;28;20072;-84
2022/05/06 07:42:26;;;;;;;23.60;16.42;;;10.50;99.90;;;;;;4993082;28;20032;-84
2022/05/06 07:44:52;;;;;;;28.55;17.33;;;10.50;99.90;;;;;;4993914;28;20034;-85
2022/05/06 07:47:17;;;;;;;21.83;16.80;;;10.50;99.90;;;;;;4993509;28;20441;-85
2022/05/06 07:49:43;;;;;;;27.38;17.83;;;10.70;99.90;;;;;;4980984;28;20378;-84
2022/05/06 07:52:08;;;;;;;25.70;17.20;;;10.60;99.90;;;;;;4994833;28;20081;-85
2022/05/06 07:54:34;;;;;;;22.15;15.27;;;10.70;99.90;;;;;;4993784;28;20256;-85
2022/05/06 07:57:00;;;;;;;25.73;18.50;;;10.50;99.90;;;;;;5004250;28;20037;-85
2022/05/06 07:59:26;;;;;;;25.05;17.35;;;10.50;99.90;;;;;;4993145;28;20034;-84
2022/05/06 08:04:38;;;;;;;25.60;17.50;;;10.40;99.90;;;;;;4974986;28;20060;-85
2022/05/06 08:07:05;;;;;;;30.33;16.80;;;10.50;99.90;;;;;;4991490;28;20286;-85
2022/05/06 08:09:32;;;;;;;25.77;16.55;;;10.40;99.90;;;;;;4986184;28;20053;-84
2022/05/06 08:11:58;;;;;;;25.95;17.27;;;10.40;99.90;;;;;;4989698;28;20045;-85
2022/05/06 08:14:24;;;;;;;23.60;15.30;;;10.50;99.90;;;;;;4991179;28;20030;-85
2022/05/06 08:16:50;;;;;;;24.60;17.63;;;10.40;99.90;;;;;;4992187;28;20026;-85
2022/05/06 08:19:17;;;;;;;25.15;16.63;;;10.50;99.90;;;;;;4982574;28;20051;-85
2022/05/06 08:21:43;;;;;;;27.00;16.95;;;10.50;99.90;;;;;;4990888;28;20026;-84
2022/05/06 08:24:11;;;;;;;26.80;17.05;;;10.50;99.90;;;;;;4974395;28;20644;-85
2022/05/06 08:26:37;;;;;;;27.27;16.27;;;10.60;99.90;;;;;;4991895;28;20084;-84
2022/05/06 08:29:04;;;;;;;22.63;16.55;;;10.60;99.90;;;;;;4987828;28;20077;-85
2022/05/06 08:31:32;;;;;;;25.83;16.98;;;10.60;99.90;;;;;;4992590;28;20443;-84
2022/05/06 08:33:58;;;;;;;22.80;15.27;;;10.70;99.90;;;;;;4992408;28;20035;-84
2022/05/06 08:36:24;;;;;;;22.77;15.90;;;10.80;99.90;;;;;;4992171;28;20041;-85
2022/05/06 08:38:50;;;;;;;23.75;15.57;;;10.80;99.90;;;;;;5003760;28;20030;-84
2022/05/06 08:41:16;;;;;;;18.95;14.70;;;10.90;99.90;;;;;;4991905;28;20041;-84
2022/05/06 08:43:42;;;;;;;21.85;15.50;;;11.00;99.90;;;;;;5014711;28;20057;-85
2022/05/06 08:51:40;;;;;;;24.27;15.38;;;11.60;99.90;;;;;;4974623;28;20533;-84
2022/05/06 08:54:07;;;;;;;21.10;15.30;;;11.80;99.90;;;;;;4992697;28;20121;-85
2022/05/06 08:56:32;;;;;;;22.27;14.40;;;12.00;99.90;;;;;;4987689;28;20027;-85
2022/05/06 08:58:59;;;;;;;21.58;13.63;;;12.00;99.90;;;;;;4987845;28;20034;-85
2022/05/06 09:01:25;;;;;;;20.02;15.32;;;12.10;99.90;;;;;;4988425;28;20045;-84
2022/05/06 09:03:51;;;;;;;19.48;14.93;;;12.20;99.90;;;;;;4994538;28;20504;-84
2022/05/06 09:06:21;;;;;;;21.10;13.73;;;12.30;99.90;;;;;;4992648;28;20038;-85
2022/05/06 09:08:48;;;;;;;22.08;15.20;;;12.30;99.90;;;;;;4986164;28;20128;-84
2022/05/06 09:11:16;;;;;;;23.35;13.93;;;12.40;99.90;;;;;;4977471;28;20022;-85
2022/05/06 09:13:55;;;;;;;18.70;13.13;;;12.50;99.90;;;;;;4992391;28;20038;-85
2022/05/06 09:16:40;;;;;;;22.08;13.13;;;12.60;99.90;;;;;;4992395;28;20030;-85
2022/05/06 09:19:12;;;;;;;24.70;13.32;;;12.30;99.90;;;;;;4976207;28;20117;-85
2022/05/06 09:21:39;;;;;;;23.38;14.55;;;12.20;99.90;;;;;;5010988;28;20154;-84
2022/05/06 09:24:19;;;;;;;23.98;14.23;;;12.20;99.90;;;;;;5011609;28;20050;-84
2022/05/06 09:27:01;;;;;;;21.33;13.50;;;12.20;99.90;;;;;;4983010;28;20015;-84
2022/05/06 09:29:34;;;;;;;19.88;12.98;;;11.90;99.90;;;;;;4994256;28;20109;-84
2022/05/06 09:32:13;;;;;;;17.52;13.60;;;12.20;99.90;;;;;;4996317;28;20034;-85
2022/05/06 09:34:42;;;;;;;21.13;13.65;;;12.20;99.90;;;;;;4984574;28;20038;-85
2022/05/06 09:37:08;;;;;;;20.30;13.82;;;12.30;99.90;;;;;;4986582;28;20042;-85
2022/05/06 09:39:38;;;;;;;18.80;13.00;;;12.70;99.90;;;;;;4991750;28;20113;-84
2022/05/06 09:42:05;;;;;;;19.90;13.70;;;12.70;99.90;;;;;;4985434;28;20256;-85
2022/05/06 09:44:33;;;;;;;20.60;12.88;;;12.80;99.90;;;;;;4987623;28;20027;-84
2022/05/06 09:47:12;;;;;;;21.23;14.43;;;13.00;99.90;;;;;;4992554;28;20113;-85
2022/05/06 09:49:44;;;;;;;19.65;12.85;;;13.30;99.90;;;;;;5008123;28;20045;-85
2022/05/06 09:52:12;;;;;;;24.13;14.40;;;13.50;99.90;;;;;;5019611;28;20421;-85
2022/05/06 09:54:41;;;;;;;18.15;13.88;;;13.40;99.90;;;;;;5002983;28;20133;-84
2022/05/06 09:57:07;;;;;;;18.33;13.30;;;13.20;99.90;;;;;;5003034;28;20037;-87
2022/05/06 09:59:34;;;;;;;18.25;12.30;;;13.00;99.90;;;;;;4991260;28;20061;-86
2022/05/06 10:02:00;;;;;;;18.85;14.40;;;12.90;99.90;;;;;;4998814;28;20490;-85
2022/05/06 10:04:26;;;;;;;21.20;14.90;;;12.70;99.90;;;;;;4988748;28;20065;-85
2022/05/06 10:06:53;;;;;;;19.92;12.90;;;12.60;99.90;;;;;;4989187;28;20049;-85
2022/05/06 10:09:22;;;;;;;20.30;13.45;;;12.50;99.90;;;;;;4990320;28;20433;-85
2022/05/06 10:11:51;;;;;;;20.90;13.60;;;12.50;99.90;;;;;;4986069;28;20046;-85
2022/05/06 10:14:18;;;;;;;22.70;14.45;;;12.60;99.90;;;;;;4980565;28;20026;-86
2022/05/06 10:16:44;;;;;;;20.52;14.13;;;12.40;99.90;;;;;;4989558;28;20446;-86
2022/05/06 10:19:46;;;;;;;20.20;13.77;;;12.50;99.90;;;;;;4991729;28;20027;-87
2022/05/06 10:22:11;;;;;;;18.67;14.18;;;12.10;99.90;;;;;;4977758;28;20073;-88
2022/05/06 10:24:49;;;;;;;18.85;14.38;;;12.20;99.90;;;;;;4990473;28;20062;-87
2022/05/06 10:32:25;;;;;;;18.25;13.68;;;12.30;99.90;;;;;;4990893;28;20461;-87
2022/05/06 10:33:16;;;;;;;18.35;14.18;;;12.60;99.90;;;;;;4982476;28;20064;-87
2022/05/06 10:35:44;;;;;;;20.73;14.52;;;12.70;99.90;;;;;;4980944;28;20527;-87
2022/05/06 10:38:19;;;;;;;18.63;13.77;;;12.70;99.90;;;;;;4989243;28;20082;-84
2022/05/06 10:40:51;;;;;;;18.83;14.02;;;12.80;99.90;;;;;;4989052;28;20030;-86
2022/05/06 10:43:42;;;;;;;20.13;13.45;;;12.70;99.90;;;;;;5003905;28;20109;-85
2022/05/06 10:46:08;;;;;;;17.58;12.13;;;12.60;99.90;;;;;;4986118;28;20076;-86
2022/05/06 10:48:34;;;;;;;16.13;12.40;;;12.40;99.90;;;;;;4987475;28;20069;-86
2022/05/06 10:51:19;;;;;;;17.83;11.68;;;12.00;99.90;;;;;;4987292;28;20042;-86
2022/05/06 10:53:45;;;;;;;17.67;11.95;;;12.10;99.90;;;;;;4986258;28;20081;-86
2022/05/06 10:56:11;;;;;;;24.58;13.18;;;12.20;99.90;;;;;;4986069;28;20034;-86
2022/05/06 10:58:37;;;;;;;18.48;13.38;;;12.20;99.90;;;;;;4986332;28;20030;-87
2022/05/06 11:01:02;;;;;;;18.67;12.85;;;12.40;99.90;;;;;;5004746;28;20039;-87
2022/05/06 11:03:28;;;;;;;16.63;12.95;;;12.70;99.90;;;;;;4985976;28;20080;-86
2022/05/06 11:05:53;;;;;;;21.52;14.52;;;12.80;99.90;;;;;;4989655;28;20028;-87
2022/05/06 11:08:21;;;;;;;16.92;12.38;;;13.20;99.90;;;;;;4989932;28;20466;-87
2022/05/06 11:10:49;;;;;;;16.77;12.27;;;13.20;99.90;;;;;;4988128;28;20030;-87
2022/05/06 11:13:17;;;;;;;18.27;12.25;;;13.10;99.90;;;;;;4987216;28;20022;-87
2022/05/06 11:15:44;;;;;;;15.07;11.65;;;13.00;99.90;;;;;;4988782;28;20034;-87
2022/05/06 11:18:10;;;;;;;16.75;12.18;;;13.30;99.90;;;;;;4958162;28;20479;-87
2022/05/06 11:20:38;;;;;;;16.77;11.82;;;13.10;99.90;;;;;;4993001;28;20038;-86
2022/05/06 11:23:06;;;;;;;20.05;11.55;;;13.10;99.90;;;;;;4999281;28;20034;-86
2022/05/06 11:25:33;;;;;;;21.40;12.85;;;13.00;99.90;;;;;;4993773;28;20030;-86
2022/05/06 11:28:01;;;;;;;15.82;11.57;;;13.00;99.90;;;;;;5006541;28;20030;-87
2022/05/06 11:30:29;;;;;;;17.40;11.50;;;13.00;99.90;;;;;;5011063;28;20377;-87
2022/05/06 11:33:00;;;;;;;17.23;11.35;;;12.90;99.90;;;;;;5013150;28;20037;-86
2022/05/06 11:35:32;;;;;;;15.23;10.60;;;12.90;99.90;;;;;;4996177;28;20053;-86
2022/05/06 11:37:59;;;;;;;16.65;12.40;;;13.00;99.90;;;;;;5014169;28;20059;-89
2022/05/06 11:40:35;;;;;;;16.40;11.80;;;13.10;99.90;;;;;;5012280;28;20395;-86
2022/05/06 11:43:04;;;;;;;17.67;12.05;;;13.30;99.90;;;;;;4996027;28;20486;-83
2022/05/06 11:48:20;;;;;;;18.45;13.07;;;13.80;99.90;;;;;;4974185;28;20074;-85
2022/05/06 11:50:48;;;;;;;15.90;10.80;;;14.10;99.90;;;;;;4977192;28;20076;-85
2022/05/06 11:53:17;;;;;;;15.30;11.25;;;14.40;99.90;;;;;;4993046;28;20103;-85
2022/05/06 11:55:44;;;;;;;17.27;11.50;;;14.80;99.90;;;;;;4993475;28;20061;-86
2022/05/06 11:58:12;;;;;;;14.55;11.95;;;15.00;99.90;;;;;;4994876;28;20084;-85
2022/05/06 12:00:38;;;;;;;20.42;12.55;;;15.40;99.90;;;;;;4995236;28;20484;-84
2022/05/06 12:03:06;;;;;;;16.55;12.05;;;15.10;99.90;;;;;;4994912;28;20045;-85
2022/05/06 12:05:36;;;;;;;19.23;12.80;;;15.00;99.90;;;;;;4995978;28;20538;-85
2022/05/06 12:08:02;;;;;;;16.42;11.20;;;15.50;99.90;;;;;;4993697;28;20073;-86
2022/05/06 12:10:29;;;;;;;20.08;11.82;;;15.80;99.90;;;;;;4995256;28;20514;-85
2022/05/06 12:13:00;;;;;;;21.88;13.20;;;15.50;99.90;;;;;;4995041;28;20431;-84
2022/05/06 12:15:29;;;;;;;18.15;12.35;;;15.80;99.90;;;;;;4993814;28;20018;-84
2022/05/06 12:18:04;;;;;;;19.00;11.95;;;15.70;99.90;;;;;;4995091;28;20057;-87
2022/05/06 12:20:41;;;;;;;21.63;12.60;;;15.90;99.90;;;;;;4999341;28;20537;-85
2022/05/06 12:23:09;;;;;;;14.45;12.15;;;15.70;99.90;;;;;;4998837;28;20030;-87
2022/05/06 12:25:36;;;;;;;18.33;12.40;;;15.90;99.90;;;;;;4996202;28;20038;-86
2022/05/06 12:28:15;;;;;;;18.67;12.10;;;16.10;99.90;;;;;;4994402;28;20035;-85
2022/05/06 12:30:42;;;;;;;19.30;12.18;;;16.10;99.90;;;;;;5003864;28;20034;-86
2022/05/06 12:33:11;;;;;;;18.95;12.13;;;16.20;99.90;;;;;;5010478;28;20065;-85
2022/05/06 12:35:56;;;;;;;15.80;12.85;;;16.00;99.90;;;;;;4987782;28;20088;-85
2022/05/06 12:38:46;;;;;;;14.82;12.35;;;15.70;99.90;;;;;;5004662;28;20048;-86
2022/05/06 12:41:20;;;;;;;16.23;12.15;;;15.50;99.90;;;;;;4992299;28;20042;-86
2022/05/06 12:43:51;;;;;;;17.40;12.85;;;15.90;99.90;;;;;;4992653;28;20034;-86
2022/05/06 12:46:28;;;;;;;19.55;13.75;;;16.00;99.90;;;;;;4992583;28;20065;-84
2022/05/06 12:51:41;;;;;;;15.27;11.32;;;16.30;99.90;;;;;;4995633;28;20033;-85
2022/05/06 12:54:08;;;;;;;19.55;13.18;;;16.30;99.90;;;;;;4994270;28;20474;-85
2022/05/06 12:56:34;;;;;;;17.35;12.90;;;16.40;99.90;;;;;;4994958;28;20375;-85
2022/05/06 12:59:00;;;;;;;17.98;11.63;;;16.40;99.90;;;;;;4995577;28;20038;-85
2022/05/06 13:01:25;;;;;;;16.35;11.95;;;16.20;99.90;;;;;;4993394;28;20347;-85
2022/05/06 13:03:51;;;;;;;17.05;11.88;;;16.00;99.90;;;;;;4993700;28;20054;-85
2022/05/06 13:06:17;;;;;;;14.82;11.05;;;16.50;99.90;;;;;;4993681;28;20038;-85
2022/05/06 13:08:42;;;;;;;14.30;11.10;;;16.40;99.90;;;;;;4995183;28;20026;-85